createdAt,value
2019-04-21T00:00:16.749Z,98089.11
2019-04-21T00:02:45.514Z,98081.75
2019-04-21T00:05:43.682Z,98087.80
2019-04-21T00:08:05.134Z,98079.64
2019-04-21T00:10:33.378Z,98080.45
2019-04-21T00:12:52.056Z,98075.20
2019-04-21T00:15:17.802Z,98076.00
2019-04-21T00:17:35.066Z,98066.81
2019-04-21T00:20:15.723Z,98070.27
2019-04-21T00:22:44.312Z,98064.70
2019-04-21T00:25:13.948Z,98062.09
2019-04-21T00:27:47.582Z,98056.33
2019-04-21T00:30:17.044Z,98059.46
2019-04-21T00:32:39.306Z,98056.05
2019-04-21T00:35:00.865Z,98065.02
2019-04-21T00:37:36.510Z,98058.95
2019-04-21T00:40:30.259Z,98050.28
2019-04-21T00:42:38.575Z,98047.66
2019-04-21T00:45:06.590Z,98049.77
2019-04-21T00:47:38.816Z,98047.98
2019-04-21T00:50:12.729Z,98037.17
2019-04-21T00:52:50.976Z,98040.11
2019-04-21T00:55:30.974Z,98041.91
2019-04-21T01:00:16.107Z,98040.11
2019-04-21T01:02:47.085Z,98039.28
2019-04-21T01:05:11.167Z,98049.29
2019-04-21T01:07:36.030Z,98045.36
2019-04-21T01:10:01.257Z,98041.91
2019-04-21T01:12:37.478Z,98041.91
2019-04-21T01:15:11.711Z,98049.77
2019-04-21T01:17:35.238Z,98044.52
2019-04-21T01:20:00.089Z,98047.15
2019-04-21T01:22:09.146Z,98043.53
2019-04-21T01:24:41.391Z,98045.64
2019-04-21T01:27:12.708Z,98041.11
2019-04-21T01:29:58.315Z,98039.80
2019-04-21T01:32:23.668Z,98028.51
2019-04-21T01:34:51.620Z,98028.51
2019-04-21T01:37:14.497Z,98030.09
2019-04-21T01:39:53.274Z,98028.79
2019-04-21T01:42:17.813Z,98030.09
2019-04-21T01:44:46.167Z,98027.99
2019-04-21T01:47:10.152Z,98036.17
2019-04-21T01:49:33.463Z,98032.23
2019-04-21T01:52:25.422Z,98033.55
2019-04-21T01:54:55.858Z,98034.03
2019-04-21T01:57:22.638Z,98039.59
2019-04-21T01:59:51.233Z,98032.72
2019-04-21T02:02:30.752Z,98041.70
2019-04-21T02:05:07.013Z,98037.48
2019-04-21T02:07:27.467Z,98036.66
2019-04-21T02:10:03.388Z,98034.55
2019-04-21T02:12:26.487Z,98034.03
2019-04-21T02:14:58.213Z,98034.03
2019-04-21T02:17:20.386Z,98037.17
2019-04-21T02:19:42.206Z,98034.55
2019-04-21T02:22:19.262Z,98041.42
2019-04-21T02:24:51.878Z,98036.38
2019-04-21T02:27:12.731Z,98047.66
2019-04-21T02:29:47.114Z,98031.92
2019-04-21T02:32:31.150Z,98027.99
2019-04-21T02:39:48.966Z,98036.17
2019-04-21T02:42:15.089Z,98021.75
2019-04-21T02:47:21.207Z,98025.38
2019-04-21T02:52:11.499Z,98017.50
2019-04-21T02:57:09.577Z,98014.88
2019-04-21T02:59:45.602Z,98009.64
2019-04-21T03:02:34.971Z,98016.19
2019-04-21T03:05:09.261Z,98008.32
2019-04-21T03:07:50.399Z,98005.70
2019-04-21T03:12:42.115Z,98001.25
2019-04-21T03:17:43.824Z,97993.10
2019-04-21T03:22:24.567Z,97992.08
2019-04-21T03:27:35.225Z,97989.97
2019-04-21T03:37:16.790Z,97990.48
2019-04-21T03:39:45.520Z,97996.23
2019-04-21T03:42:19.567Z,97980.50
2019-04-21T03:44:38.621Z,97979.48
2019-04-21T03:49:40.354Z,97973.44
2019-04-21T03:52:19.488Z,97968.70
2019-04-21T03:54:36.952Z,97976.85
2019-04-21T03:57:19.496Z,97968.98
2019-04-21T03:59:24.297Z,97976.05
2019-04-21T04:02:08.163Z,97972.13
2019-04-21T04:04:47.524Z,97976.34
2019-04-21T04:07:31.396Z,97935.20
2019-04-21T04:17:25.770Z,97961.63
2019-04-21T04:19:54.500Z,97959.80
2019-04-21T04:22:35.414Z,97958.50
2019-04-21T04:24:57.929Z,97956.90
2019-04-21T04:27:53.747Z,97952.97
2019-04-21T04:29:50.310Z,97952.73
2019-04-21T04:32:23.484Z,97953.77
2019-04-21T04:37:26.329Z,97957.70
2019-04-21T04:39:48.703Z,97959.80
2019-04-21T04:47:20.487Z,97955.88
2019-04-21T04:52:31.341Z,97957.19
2019-04-21T04:57:25.989Z,97957.70
2019-04-21T04:59:43.721Z,97959.01
2019-04-21T05:04:45.726Z,97966.36
2019-04-21T05:07:09.127Z,97966.08
2019-04-21T05:14:29.807Z,97965.56
2019-04-21T05:19:34.560Z,97960.83
2019-04-21T05:21:55.349Z,97955.88
2019-04-21T05:24:16.563Z,97951.94
2019-04-21T05:26:44.726Z,97959.52
2019-04-21T05:29:11.126Z,97956.90
2019-04-21T05:34:22.142Z,97959.52
2019-04-21T05:36:52.128Z,97954.28
2019-04-21T05:39:18.469Z,97964.25
2019-04-21T05:41:45.240Z,97963.45
2019-04-21T05:44:31.465Z,97954.28
2019-04-21T05:46:59.454Z,97957.70
2019-04-21T05:49:15.396Z,97955.08
2019-04-21T05:51:55.746Z,97956.39
2019-04-21T05:54:34.254Z,97955.59
2019-04-21T05:56:55.438Z,97961.63
2019-04-21T05:59:28.760Z,97952.97
2019-04-21T06:01:57.216Z,97953.77
2019-04-21T06:04:38.568Z,97954.56
2019-04-21T06:06:58.796Z,97953.25
2019-04-21T06:09:19.761Z,97956.90
2019-04-21T06:11:51.024Z,97948.52
2019-04-21T06:14:21.750Z,97949.03
2019-04-21T06:16:53.940Z,97947.20
2019-04-21T06:19:15.382Z,97947.72
2019-04-21T06:21:39.275Z,97942.48
2019-04-21T06:24:13.046Z,97945.89
2019-04-21T06:29:10.303Z,97944.59
2019-04-21T06:32:03.838Z,97944.59
2019-04-21T06:34:03.545Z,97946.18
2019-04-21T06:37:04.359Z,97942.77
2019-04-21T06:39:19.599Z,97949.31
2019-04-21T06:41:49.213Z,97951.94
2019-04-21T06:46:40.795Z,97949.31
2019-04-21T06:49:07.096Z,97945.89
2019-04-21T06:51:58.163Z,97939.57
2019-04-21T06:54:09.559Z,97943.27
2019-04-21T06:56:43.833Z,97942.77
2019-04-21T06:59:05.977Z,97943.27
2019-04-21T07:01:37.446Z,97942.48
2019-04-21T07:04:13.432Z,97943.27
2019-04-21T07:06:37.335Z,97935.92
2019-04-21T07:09:10.263Z,97935.41
2019-04-21T07:11:28.432Z,97934.89
2019-04-21T07:14:13.450Z,97933.58
2019-04-21T07:16:35.762Z,97934.09
2019-04-21T07:21:29.981Z,97937.52
2019-04-21T07:24:02.096Z,97936.44
2019-04-21T07:26:22.254Z,97937.13
2019-04-21T07:28:56.355Z,97924.48
2019-04-21T07:31:19.001Z,97927.81
2019-04-21T07:36:22.134Z,97916.86
2019-04-21T07:38:39.936Z,97914.15
2019-04-21T07:41:02.185Z,97919.70
2019-04-21T07:43:33.959Z,97919.39
2019-04-21T07:46:02.693Z,97910.41
2019-04-21T07:48:37.785Z,97909.90
2019-04-21T07:51:14.249Z,97909.72
2019-04-21T07:53:48.217Z,97910.75
2019-04-21T07:55:51.114Z,97906.59
2019-04-21T07:58:37.351Z,97903.27
2019-04-21T08:01:07.751Z,97905.75
2019-04-21T08:03:33.584Z,97905.80
2019-04-21T08:06:03.706Z,97908.48
2019-04-21T08:08:26.315Z,97907.22
2019-04-21T08:10:56.763Z,97905.96
2019-04-21T08:13:34.666Z,97908.86
2019-04-21T08:15:58.082Z,97901.31
2019-04-21T08:18:28.764Z,97896.35
2019-04-21T08:20:53.188Z,97894.53
2019-04-21T08:23:29.325Z,97898.77
2019-04-21T08:25:58.924Z,97892.50
2019-04-21T08:28:22.494Z,97899.05
2019-04-21T08:30:47.795Z,97896.20
2019-04-21T08:33:26.294Z,97889.64
2019-04-21T08:36:06.193Z,97893.06
2019-04-21T08:38:13.882Z,97890.44
2019-04-21T08:43:12.629Z,97886.79
2019-04-21T08:45:41.661Z,97886.79
2019-04-21T08:50:31.342Z,97886.56
2019-04-21T08:53:20.859Z,97884.73
2019-04-21T08:55:40.121Z,97874.48
2019-04-21T09:00:55.188Z,97869.00
2019-04-21T09:03:21.338Z,97873.22
2019-04-21T09:05:53.997Z,97871.39
2019-04-21T09:08:19.893Z,97866.14
2019-04-21T09:10:48.519Z,97860.39
2019-04-21T09:13:17.542Z,97865.63
2019-04-21T09:15:42.947Z,97860.66
2019-04-21T09:18:10.202Z,97856.22
2019-04-21T09:20:46.049Z,97849.66
2019-04-21T09:23:06.396Z,97843.11
2019-04-21T09:25:48.274Z,97850.45
2019-04-21T09:28:06.983Z,97841.28
2019-04-21T09:30:17.910Z,97835.55
2019-04-21T09:32:48.692Z,97835.55
2019-04-21T09:35:15.430Z,97832.41
2019-04-21T09:37:51.648Z,97829.80
2019-04-21T09:40:12.259Z,97834.00
2019-04-21T09:42:44.411Z,97825.62
2019-04-21T09:45:09.781Z,97821.17
2019-04-21T09:47:45.993Z,97815.93
2019-04-21T09:50:06.499Z,97819.86
2019-04-21T09:52:41.786Z,97807.27
2019-04-21T09:55:07.286Z,97814.90
2019-04-21T09:57:40.754Z,97802.58
2019-04-21T10:00:07.865Z,97797.34
2019-04-21T10:02:37.534Z,97807.08
2019-04-21T10:04:57.331Z,97796.95
2019-04-21T10:07:31.897Z,97795.51
2019-04-21T10:09:52.868Z,97785.58
2019-04-21T10:12:20.007Z,97785.58
2019-04-21T10:14:47.368Z,97792.38
2019-04-21T10:17:21.979Z,97787.95
2019-04-21T10:19:48.848Z,97778.77
2019-04-21T10:22:17.052Z,97781.04
2019-04-21T10:24:44.625Z,97785.48
2019-04-21T10:27:13.276Z,97771.30
2019-04-21T10:29:43.119Z,97771.58
2019-04-21T10:32:09.198Z,97772.09
2019-04-21T10:34:37.142Z,97772.38
2019-04-21T10:37:04.951Z,97768.45
2019-04-21T10:39:31.933Z,97764.23
2019-04-21T10:41:59.615Z,97755.05
2019-04-21T10:44:27.349Z,97755.05
2019-04-21T10:46:55.901Z,97761.09
2019-04-21T10:49:24.380Z,97753.74
2019-04-21T10:51:51.349Z,97739.31
2019-04-21T10:54:18.258Z,97745.87
2019-04-21T10:56:46.115Z,97740.62
2019-04-21T10:59:14.268Z,97736.70
2019-04-21T11:01:41.332Z,97733.55
2019-04-21T11:04:21.807Z,97731.97
2019-04-21T11:06:44.363Z,97726.20
2019-04-21T11:09:11.279Z,97723.58
2019-04-21T11:11:39.619Z,97724.09
2019-04-21T11:14:06.803Z,97718.03
2019-04-21T11:16:35.032Z,97718.55
2019-04-21T11:19:02.119Z,97713.09
2019-04-21T11:21:29.236Z,97698.95
2019-04-21T11:23:56.604Z,97702.13
2019-04-21T11:26:24.313Z,97706.34
2019-04-21T11:28:52.465Z,97708.17
2019-04-21T11:31:20.906Z,97703.95
2019-04-21T11:33:49.055Z,97705.55
2019-04-21T11:36:17.374Z,97695.85
2019-04-21T11:39:02.379Z,97692.44
2019-04-21T11:41:16.062Z,97688.50
2019-04-21T11:43:43.281Z,97686.16
2019-04-21T11:46:10.805Z,97678.81
2019-04-21T11:48:37.887Z,97676.98
2019-04-21T11:51:04.851Z,97672.53
2019-04-21T11:53:32.826Z,97672.25
2019-04-21T11:56:00.752Z,97663.87
2019-04-21T11:58:28.235Z,97657.59
2019-04-21T12:00:57.903Z,97666.25
2019-04-21T12:03:24.913Z,97661.00
2019-04-21T12:05:53.117Z,97661.80
2019-04-21T12:08:30.004Z,97656.27
2019-04-21T12:10:49.286Z,97651.03
2019-04-21T12:13:16.325Z,97659.18
2019-04-21T12:15:43.255Z,97650.00
2019-04-21T12:18:10.196Z,97662.36
2019-04-21T12:20:37.648Z,97640.30
2019-04-21T12:23:04.690Z,97652.10
2019-04-21T12:25:40.672Z,97645.83
2019-04-21T12:28:07.951Z,97633.75
2019-04-21T12:30:35.747Z,97630.37
2019-04-21T12:33:22.237Z,97628.27
2019-04-21T12:35:49.689Z,97630.64
2019-04-21T12:38:29.337Z,97624.60
2019-04-21T12:40:46.441Z,97625.40
2019-04-21T12:43:14.732Z,97623.81
2019-04-21T12:45:41.968Z,97625.92
2019-04-21T12:48:10.323Z,97614.39
2019-04-21T12:50:37.335Z,97609.42
2019-04-21T12:53:05.379Z,97607.83
2019-04-21T12:55:37.446Z,97596.55
2019-04-21T12:58:01.432Z,97602.59
2019-04-21T13:00:28.956Z,97597.63
2019-04-21T13:02:56.301Z,97587.20
2019-04-21T13:05:25.317Z,97589.89
2019-04-21T13:07:53.346Z,97585.95
2019-04-21T13:10:20.488Z,97588.86
2019-04-21T13:12:48.011Z,97585.72
2019-04-21T13:15:15.706Z,97585.68
2019-04-21T13:17:44.445Z,97577.53
2019-04-21T13:20:11.599Z,97575.67
2019-04-21T13:22:39.773Z,97576.19
2019-04-21T13:25:07.611Z,97574.08
2019-04-21T13:27:34.617Z,97570.94
2019-04-21T13:30:02.199Z,97562.28
2019-04-21T13:32:29.259Z,97465.09
2019-04-21T13:34:57.029Z,97560.45
2019-04-21T13:37:25.577Z,97548.38
2019-04-21T13:40:29.733Z,97552.30
2019-04-21T13:42:49.554Z,97543.12
2019-04-21T13:45:12.176Z,97542.84
2019-04-21T13:47:40.653Z,97539.44
2019-04-21T13:50:08.804Z,97536.30
2019-04-21T13:52:36.484Z,97524.70
2019-04-21T13:55:03.473Z,97519.77
2019-04-21T13:57:30.470Z,97537.60
2019-04-21T13:59:57.366Z,97526.80
2019-04-21T14:02:24.759Z,97519.77
2019-04-21T14:04:51.871Z,97511.07
2019-04-21T14:07:18.800Z,97510.58
2019-04-21T14:09:53.215Z,97499.27
2019-04-21T14:12:14.292Z,97485.87
2019-04-21T14:14:42.045Z,97503.72
2019-04-21T14:17:09.083Z,97505.82
2019-04-21T14:19:37.271Z,97501.61
2019-04-21T14:22:05.375Z,97504.02
2019-04-21T14:24:32.958Z,97503.20
2019-04-21T14:27:00.543Z,97497.16
2019-04-21T14:29:27.822Z,97491.64
2019-04-21T14:31:56.053Z,97493.75
2019-04-21T14:34:23.882Z,97488.78
2019-04-21T14:36:52.851Z,97488.29
2019-04-21T14:39:20.837Z,97470.94
2019-04-21T14:41:48.314Z,97474.35
2019-04-21T14:44:15.394Z,97473.05
2019-04-21T14:46:44.915Z,97476.19
2019-04-21T14:49:29.103Z,97473.05
2019-04-21T14:52:04.809Z,97468.31
2019-04-21T14:54:33.743Z,97460.97
2019-04-21T14:57:00.944Z,97461.76
2019-04-21T14:59:28.867Z,97457.83
2019-04-21T15:01:55.861Z,97463.86
2019-04-21T15:04:24.046Z,97463.06
2019-04-21T15:06:51.728Z,97459.13
2019-04-21T15:09:18.941Z,97462.55
2019-04-21T15:11:45.828Z,97459.44
2019-04-21T15:14:13.819Z,97453.89
2019-04-21T15:16:40.918Z,97454.69
2019-04-21T15:19:08.673Z,97442.60
2019-04-21T15:21:35.572Z,97451.27
2019-04-21T15:24:02.536Z,97446.54
2019-04-21T15:26:30.469Z,97439.98
2019-04-21T15:28:57.427Z,97439.46
2019-04-21T15:31:30.510Z,97440.26
2019-04-21T15:33:52.907Z,97432.11
2019-04-21T15:36:20.953Z,97428.19
2019-04-21T15:38:48.048Z,97426.08
2019-04-21T15:41:16.295Z,97419.80
2019-04-21T15:43:44.659Z,97425.56
2019-04-21T15:46:12.890Z,97427.66
2019-04-21T15:48:41.121Z,97428.45
2019-04-21T15:51:09.300Z,97417.17
2019-04-21T15:53:39.574Z,97419.80
2019-04-21T15:56:08.810Z,97416.66
2019-04-21T15:58:43.292Z,97411.92
2019-04-21T16:01:18.670Z,97408.52
2019-04-21T16:03:46.874Z,97406.16
2019-04-21T16:06:13.903Z,97406.69
2019-04-21T16:08:40.835Z,97395.92
2019-04-21T16:11:10.844Z,97397.50
2019-04-21T16:13:37.375Z,97394.36
2019-04-21T16:16:04.440Z,97389.94
2019-04-21T16:18:32.160Z,97395.67
2019-04-21T16:20:59.965Z,97390.42
2019-04-21T16:23:26.899Z,97387.02
2019-04-21T16:25:54.725Z,97386.49
2019-04-21T16:28:21.772Z,97381.25
2019-04-21T16:30:48.845Z,97383.88
2019-04-21T16:33:16.046Z,97381.25
2019-04-21T16:35:44.092Z,97377.83
2019-04-21T16:38:11.309Z,97379.94
2019-04-21T16:40:48.480Z,97368.66
2019-04-21T16:43:07.993Z,97377.83
2019-04-21T16:45:34.991Z,97376.83
2019-04-21T16:48:03.130Z,97362.40
2019-04-21T16:50:30.677Z,97364.72
2019-04-21T16:53:01.693Z,97363.41
2019-04-21T16:55:33.234Z,97365.02
2019-04-21T16:58:12.685Z,97362.89
2019-04-21T17:00:40.737Z,97354.53
2019-04-21T17:03:04.212Z,97361.09
2019-04-21T17:05:32.240Z,97351.09
2019-04-21T17:07:59.679Z,97354.23
2019-04-21T17:10:26.699Z,97352.40
2019-04-21T17:12:53.704Z,97350.59
2019-04-21T17:15:35.581Z,97351.09
2019-04-21T17:18:08.868Z,97348.77
2019-04-21T17:20:31.011Z,97355.84
2019-04-21T17:22:46.308Z,97348.47
2019-04-21T17:25:14.149Z,97344.05
2019-04-21T17:27:41.126Z,97345.84
2019-04-21T17:30:08.484Z,97349.78
2019-04-21T17:32:40.125Z,97351.09
2019-04-21T17:35:04.118Z,97349.29
2019-04-21T17:37:32.337Z,97340.59
2019-04-21T17:40:02.281Z,97352.19
2019-04-21T17:42:37.379Z,97348.77
2019-04-21T17:44:57.326Z,97347.98
2019-04-21T17:47:34.125Z,97346.14
2019-04-21T17:49:57.640Z,97344.84
2019-04-21T17:52:35.270Z,97345.36
2019-04-21T17:55:10.292Z,97344.05
2019-04-21T17:57:55.709Z,97350.08
2019-04-21T18:00:23.894Z,97354.53
2019-04-21T18:02:54.964Z,97353.22
2019-04-21T18:05:22.913Z,97352.40
2019-04-21T18:07:49.176Z,97357.95
2019-04-21T18:10:11.463Z,97349.78
2019-04-21T18:12:40.782Z,97357.43
2019-04-21T18:15:08.348Z,97357.95
2019-04-21T18:17:22.624Z,97359.26
2019-04-21T18:19:51.734Z,97357.95
2019-04-21T18:22:32.151Z,97359.26
2019-04-21T18:25:05.702Z,97351.09
2019-04-21T18:27:29.720Z,97355.84
2019-04-21T18:29:56.075Z,97347.98
2019-04-21T18:32:26.451Z,97352.40
2019-04-21T18:35:12.577Z,97352.70
2019-04-21T18:37:45.520Z,97351.83
2019-04-21T18:40:18.815Z,97355.21
2019-04-21T18:43:04.390Z,97357.59
2019-04-21T18:48:05.155Z,97355.23
2019-04-21T18:50:48.923Z,97355.36
2019-04-21T18:53:41.163Z,97361.98
2019-04-21T18:56:01.852Z,97365.50
2019-04-21T18:58:24.283Z,97369.28
2019-04-21T19:00:52.970Z,97366.84
2019-04-21T19:03:27.375Z,97367.48
2019-04-21T19:05:54.400Z,97360.31
2019-04-21T19:08:38.751Z,97363.77
2019-04-21T19:11:10.377Z,97364.95
2019-04-21T19:13:47.828Z,97366.98
2019-04-21T19:16:22.852Z,97367.62
2019-04-21T19:18:39.736Z,97365.66
2019-04-21T19:21:03.050Z,97361.51
2019-04-21T19:23:41.651Z,97370.23
2019-04-21T19:26:12.317Z,97365.29
2019-04-21T19:28:31.922Z,97365.84
2019-04-21T19:31:04.342Z,97362.18
2019-04-21T19:33:26.636Z,97365.87
2019-04-21T19:35:37.224Z,97362.21
2019-04-21T19:38:08.381Z,97365.90
2019-04-21T19:40:49.432Z,97368.00
2019-04-21T19:43:17.049Z,97365.38
2019-04-21T19:45:42.248Z,97365.16
2019-04-21T19:48:12.274Z,97363.86
2019-04-21T19:50:47.298Z,97364.13
2019-04-21T19:53:05.225Z,97358.37
2019-04-21T19:55:24.415Z,97358.67
2019-04-21T19:57:52.599Z,97352.12
2019-04-21T20:00:19.652Z,97356.05
2019-04-21T20:02:46.562Z,97360.26
2019-04-21T20:05:20.621Z,97371.59
2019-04-21T20:08:01.336Z,97367.75
2019-04-21T20:10:44.337Z,97363.33
2019-04-21T20:13:00.557Z,97366.50
2019-04-21T20:15:31.648Z,97358.60
2019-04-21T20:17:50.318Z,97358.30
2019-04-21T20:20:04.866Z,97356.14
2019-04-21T20:22:36.838Z,97353.77
2019-04-21T20:25:07.896Z,97352.17
2019-04-21T20:27:38.501Z,97353.48
2019-04-21T20:30:13.461Z,97350.59
2019-04-21T20:32:47.416Z,97350.34
2019-04-21T20:35:14.384Z,97343.00
2019-04-21T20:37:37.333Z,97347.73
2019-04-21T20:39:58.450Z,97337.23
2019-04-21T20:42:36.730Z,97345.38
2019-04-21T20:45:25.307Z,97339.86
2019-04-21T20:47:25.560Z,97337.78
2019-04-21T20:49:59.708Z,97336.01
2019-04-21T20:52:35.757Z,97337.81
2019-04-21T20:54:56.410Z,97335.44
2019-04-21T20:57:25.939Z,97338.58
2019-04-21T20:59:58.038Z,97341.72
2019-04-21T21:02:28.373Z,97333.06
2019-04-21T21:04:45.724Z,97333.84
2019-04-21T21:07:34.629Z,97333.84
2019-04-21T21:09:55.543Z,97334.13
2019-04-21T21:12:33.971Z,97337.27
2019-04-21T21:14:47.346Z,97333.33
2019-04-21T21:17:34.068Z,97330.19
2019-04-21T21:19:47.322Z,97329.67
2019-04-21T21:22:10.964Z,97327.56
2019-04-21T21:24:56.791Z,97330.98
2019-04-21T21:27:09.780Z,97329.40
2019-04-21T21:29:41.849Z,97330.19
2019-04-21T21:32:16.567Z,97327.05
2019-04-21T21:34:42.554Z,97330.46
2019-04-21T21:37:17.005Z,97328.36
2019-04-21T21:39:40.418Z,97319.45
2019-04-21T21:41:51.102Z,97325.73
2019-04-21T21:44:19.924Z,97325.00
2019-04-21T21:46:55.123Z,97317.66
2019-04-21T21:49:29.388Z,97328.14
2019-04-21T21:51:52.701Z,97321.59
2019-04-21T21:54:09.710Z,97318.14
2019-04-21T21:56:36.689Z,97318.14
2019-04-21T21:59:10.564Z,97313.94
2019-04-21T22:01:39.814Z,97315.52
2019-04-21T22:04:10.403Z,97315.03
2019-04-21T22:06:38.738Z,97316.34
2019-04-21T22:08:58.511Z,97306.34
2019-04-21T22:11:26.263Z,97307.17
2019-04-21T22:14:01.899Z,97309.27
2019-04-21T22:16:23.364Z,97306.34
2019-04-21T22:19:11.438Z,97301.41
2019-04-21T22:21:36.438Z,97302.72
2019-04-21T22:23:56.915Z,97301.92
2019-04-21T22:26:16.085Z,97296.16
2019-04-21T22:28:43.558Z,97295.06
2019-04-21T22:31:15.118Z,97290.92
2019-04-21T22:33:47.894Z,97295.37
2019-04-21T22:36:23.822Z,97291.19
2019-04-21T22:38:47.598Z,97294.90
2019-04-21T22:41:12.959Z,97290.97
2019-04-21T22:43:39.692Z,97297.77
2019-04-21T22:46:03.204Z,97293.81
2019-04-21T22:48:30.694Z,97297.23
2019-04-21T22:50:58.308Z,97295.91
2019-04-21T22:53:29.280Z,97293.81
2019-04-21T22:55:58.073Z,97291.70
2019-04-21T22:58:28.520Z,97291.70
2019-04-21T23:00:56.212Z,97293.29
2019-04-21T23:03:24.232Z,97296.44
2019-04-21T23:05:48.889Z,97295.91
2019-04-21T23:08:17.151Z,97293.81
2019-04-21T23:10:52.469Z,97295.64
2019-04-21T23:13:19.886Z,97294.33
2019-04-21T23:15:47.140Z,97289.88
2019-04-21T23:18:25.923Z,97288.56
2019-04-21T23:20:53.902Z,97285.95
2019-04-21T23:23:30.316Z,97287.78
2019-04-21T23:25:47.176Z,97279.39
2019-04-21T23:28:16.000Z,97281.22
2019-04-21T23:30:54.484Z,97275.98
2019-04-21T23:33:06.410Z,97265.48
2019-04-21T23:35:35.319Z,97267.59
2019-04-21T23:38:03.565Z,97262.34
2019-04-21T23:40:28.913Z,97273.63
2019-04-21T23:42:59.185Z,97264.39
2019-04-21T23:45:30.625Z,97258.41
2019-04-21T23:48:09.473Z,97257.63
2019-04-21T23:50:33.248Z,97256.58
2019-04-21T23:52:49.866Z,97259.20
2019-04-21T23:55:17.088Z,97259.72
2019-04-21T23:57:48.034Z,97254.20
